Time;durP1;ratioP1;P1;durP2;ratioP2;P2;SDS_P1;SDS_P2;PMS_P1;PMS_P2;Temp;Humidity;BMP_temperature;BMP_pressure;BME280_temperature;BME280_humidity;BME280_pressure;Samples;Min_cycle;Max_cycle;Signal;HPM_P1;HPM_P2
2022/08/14 00:02:10;;;;;;;;;;;24.60;40.70;;;;;;5079260;28;19946;-70
2022/08/14 00:04:38;;;;;;;;;;;24.60;40.80;;;;;;5074575;28;19939;-70
2022/08/14 00:07:05;;;;;;;;;;;24.60;40.80;;;;;;5085954;28;19932;-70
2022/08/14 00:09:31;;;;;;;;;;;24.50;40.90;;;;;;5085824;28;19931;-71
2022/08/14 00:11:58;;;;;;;;;;;24.50;41.00;;;;;;5077656;28;19928;-71
2022/08/14 00:14:26;;;;;;;;;;;24.50;41.10;;;;;;5079262;28;19931;-69
2022/08/14 00:16:53;;;;;;;;;;;24.40;41.30;;;;;;5081170;28;20486;-69
2022/08/14 00:19:20;;;;;;;;;;;24.40;41.40;;;;;;5079385;28;19924;-69
2022/08/14 00:21:48;;;;;;;;;;;24.30;41.40;;;;;;5079994;28;19924;-69
2022/08/14 00:24:14;;;;;;;;;;;24.30;41.50;;;;;;5079060;28;19925;-70
2022/08/14 00:26:41;;;;;;;;;;;24.20;41.60;;;;;;5082382;28;19947;-69
2022/08/14 00:29:07;;;;;;;;;;;24.20;41.80;;;;;;5074593;28;20300;-70
2022/08/14 00:31:34;;;;;;;;;;;24.20;42.00;;;;;;5076855;28;20392;-69
2022/08/14 00:34:00;;;;;;;;;;;24.20;42.20;;;;;;5083715;28;19925;-69
2022/08/14 00:36:27;;;;;;;;;;;24.10;42.30;;;;;;5083536;28;19958;-70
2022/08/14 00:38:55;;;;;;;;;;;24.10;42.50;;;;;;5086670;28;19932;-69
2022/08/14 00:41:21;;;;;;;;;;;24.00;42.50;;;;;;5085826;28;20411;-71
2022/08/14 00:43:48;;;;;;;;;;;24.00;42.70;;;;;;5089333;28;20398;-69
2022/08/14 00:46:15;;;;;;;;;;;24.00;42.60;;;;;;5089387;28;19947;-70
2022/08/14 00:48:41;;;;;;;;;;;23.90;42.90;;;;;;5089110;28;19928;-70
2022/08/14 00:51:10;;;;;;;;;;;23.90;42.80;;;;;;5088846;28;19928;-70
2022/08/14 00:53:37;;;;;;;;;;;23.90;43.20;;;;;;5090359;28;19931;-69
2022/08/14 00:56:06;;;;;;;;;;;23.80;43.20;;;;;;5088405;28;20472;-69
2022/08/14 00:58:33;;;;;;;;;;;23.80;43.30;;;;;;5087640;28;20018;-69
2022/08/14 01:01:02;;;;;;;;;;;23.70;43.50;;;;;;5082432;28;20395;-70
2022/08/14 01:03:29;;;;;;;;;;;23.70;43.80;;;;;;5084432;28;19925;-69
2022/08/14 01:05:56;;;;;;;;;;;23.70;43.80;;;;;;5087437;28;19931;-70
2022/08/14 01:08:24;;;;;;;;;;;23.60;44.10;;;;;;5084363;28;19935;-70
2022/08/14 01:10:50;;;;;;;;;;;23.70;44.10;;;;;;5077664;28;19935;-69
2022/08/14 01:13:19;;;;;;;;;;;23.60;44.10;;;;;;5076457;28;19928;-70
2022/08/14 01:15:47;;;;;;;;;;;23.60;44.50;;;;;;5082546;28;20039;-69
2022/08/14 01:21:05;;;;;;;;;;;23.50;45.00;;;;;;5054587;28;19920;-69
2022/08/14 01:23:34;;;;;;;;;;;23.50;44.80;;;;;;5085871;28;19935;-72
2022/08/14 01:26:00;;;;;;;;;;;23.40;44.80;;;;;;5072552;28;19932;-70
2022/08/14 01:28:30;;;;;;;;;;;23.40;45.10;;;;;;5077549;28;20407;-69
2022/08/14 01:30:57;;;;;;;;;;;23.30;45.10;;;;;;5081551;28;20396;-69
2022/08/14 01:33:27;;;;;;;;;;;23.40;45.40;;;;;;5081272;28;19925;-70
2022/08/14 01:35:55;;;;;;;;;;;23.30;45.30;;;;;;5080027;28;20430;-70
2022/08/14 01:38:22;;;;;;;;;;;23.30;45.60;;;;;;5084102;28;20009;-69
2022/08/14 01:40:50;;;;;;;;;;;23.30;45.40;;;;;;5080144;28;20303;-69
2022/08/14 01:43:17;;;;;;;;;;;23.20;45.50;;;;;;5086377;28;19947;-70
2022/08/14 01:45:44;;;;;;;;;;;23.20;45.80;;;;;;5084061;28;19939;-72
2022/08/14 01:48:12;;;;;;;;;;;23.20;45.70;;;;;;5077963;28;20002;-67
2022/08/14 01:50:40;;;;;;;;;;;23.20;46.00;;;;;;5083004;28;20024;-69
2022/08/14 01:53:07;;;;;;;;;;;23.10;46.10;;;;;;5084457;28;20668;-69
2022/08/14 01:55:34;;;;;;;;;;;23.10;46.20;;;;;;5081068;28;20435;-68
2022/08/14 01:58:01;;;;;;;;;;;23.10;46.30;;;;;;5087210;28;19924;-71
2022/08/14 02:00:29;;;;;;;;;;;23.00;46.10;;;;;;5081903;28;19925;-69
2022/08/14 02:02:55;;;;;;;;;;;23.00;46.30;;;;;;5087808;28;19947;-68
2022/08/14 02:05:30;;;;;;;;;;;23.00;46.50;;;;;;5087735;28;19951;-69
2022/08/14 02:07:56;;;;;;;;;;;22.90;46.60;;;;;;5086572;28;19924;-69
2022/08/14 02:10:23;;;;;;;;;;;22.90;46.60;;;;;;5087780;28;19955;-71
2022/08/14 02:12:49;;;;;;;;;;;22.90;46.80;;;;;;5078270;28;20308;-69
2022/08/14 02:15:20;;;;;;;;;;;22.90;46.90;;;;;;5086647;28;19931;-70
2022/08/14 02:17:47;;;;;;;;;;;22.90;46.80;;;;;;5080296;28;20149;-70
2022/08/14 02:20:14;;;;;;;;;;;22.80;47.00;;;;;;5088213;28;19924;-72
2022/08/14 02:22:41;;;;;;;;;;;22.80;47.10;;;;;;5082272;28;19928;-69
2022/08/14 02:25:09;;;;;;;;;;;22.70;47.10;;;;;;5085466;28;19924;-72
2022/08/14 02:27:36;;;;;;;;;;;22.70;47.40;;;;;;5075908;28;19955;-69
2022/08/14 02:30:02;;;;;;;;;;;22.70;47.40;;;;;;5074433;28;20062;-70
2022/08/14 02:32:33;;;;;;;;;;;22.70;47.50;;;;;;5081592;28;19924;-70
2022/08/14 02:35:02;;;;;;;;;;;22.70;47.60;;;;;;5081753;28;19924;-69
2022/08/14 02:37:29;;;;;;;;;;;22.60;47.60;;;;;;5082097;28;19927;-70
2022/08/14 02:39:56;;;;;;;;;;;22.60;47.80;;;;;;5074392;28;20395;-69
2022/08/14 02:42:24;;;;;;;;;;;22.60;48.00;;;;;;5088126;28;19928;-69
2022/08/14 02:44:50;;;;;;;;;;;22.60;48.10;;;;;;5079026;28;19932;-69
2022/08/14 02:47:18;;;;;;;;;;;22.50;48.10;;;;;;5079990;28;19924;-70
2022/08/14 02:49:46;;;;;;;;;;;22.50;48.30;;;;;;5079505;28;20346;-69
2022/08/14 02:52:12;;;;;;;;;;;22.40;48.30;;;;;;5071918;28;19924;-69
2022/08/14 02:54:39;;;;;;;;;;;22.50;48.30;;;;;;5086507;28;20388;-69
2022/08/14 02:57:05;;;;;;;;;;;22.40;48.10;;;;;;5085746;28;19928;-69
2022/08/14 02:59:33;;;;;;;;;;;22.40;48.20;;;;;;5087486;28;19924;-72
2022/08/14 03:02:00;;;;;;;;;;;22.40;48.30;;;;;;5086951;28;21193;-69
2022/08/14 03:04:28;;;;;;;;;;;22.40;48.30;;;;;;5079593;28;19934;-69
2022/08/14 03:06:56;;;;;;;;;;;22.30;48.40;;;;;;5081920;28;19924;-70
2022/08/14 03:09:22;;;;;;;;;;;22.30;48.50;;;;;;5081272;28;19924;-70
2022/08/14 03:11:50;;;;;;;;;;;22.20;48.40;;;;;;5077423;28;19931;-70
2022/08/14 03:14:17;;;;;;;;;;;22.20;48.50;;;;;;5079467;28;19924;-70
2022/08/14 03:16:44;;;;;;;;;;;22.20;48.70;;;;;;5082238;28;20394;-69
2022/08/14 03:19:11;;;;;;;;;;;22.10;48.70;;;;;;5076361;28;19928;-68
2022/08/14 03:21:38;;;;;;;;;;;22.10;48.70;;;;;;5074987;28;19929;-69
2022/08/14 03:24:12;;;;;;;;;;;22.10;48.90;;;;;;5080066;28;20300;-69
2022/08/14 03:26:39;;;;;;;;;;;22.10;48.90;;;;;;5075746;28;19924;-69
2022/08/14 03:29:06;;;;;;;;;;;22.00;48.80;;;;;;5086876;28;19929;-69
2022/08/14 03:31:33;;;;;;;;;;;22.00;48.80;;;;;;5085197;28;19924;-68
2022/08/14 03:34:00;;;;;;;;;;;22.00;48.90;;;;;;5079133;28;20102;-69
2022/08/14 03:36:27;;;;;;;;;;;22.00;48.90;;;;;;5078266;28;20311;-70
2022/08/14 03:38:54;;;;;;;;;;;22.00;48.80;;;;;;5075656;28;19983;-67
2022/08/14 03:41:23;;;;;;;;;;;21.90;48.80;;;;;;5083588;28;19932;-69
2022/08/14 03:43:50;;;;;;;;;;;21.90;49.10;;;;;;5086807;28;19924;-69
2022/08/14 03:46:18;;;;;;;;;;;21.90;49.20;;;;;;5086055;28;19931;-71
2022/08/14 03:48:44;;;;;;;;;;;21.80;49.00;;;;;;5080052;28;19924;-69
2022/08/14 03:51:12;;;;;;;;;;;21.80;49.20;;;;;;5084793;28;19930;-68
2022/08/14 03:53:41;;;;;;;;;;;21.80;49.20;;;;;;5087222;28;20410;-70
2022/08/14 03:56:11;;;;;;;;;;;21.80;49.20;;;;;;5085189;28;20491;-71
2022/08/14 03:58:40;;;;;;;;;;;21.80;49.30;;;;;;5087051;28;19928;-69
2022/08/14 04:01:07;;;;;;;;;;;21.70;49.40;;;;;;5079045;28;20355;-69
2022/08/14 04:03:34;;;;;;;;;;;21.70;49.50;;;;;;5076625;28;20579;-71
2022/08/14 04:06:01;;;;;;;;;;;21.70;49.50;;;;;;5080705;28;20297;-69
2022/08/14 04:08:28;;;;;;;;;;;21.60;49.50;;;;;;5084757;28;20309;-71
2022/08/14 04:10:56;;;;;;;;;;;21.70;49.60;;;;;;5079789;28;19946;-69
2022/08/14 04:13:22;;;;;;;;;;;21.60;49.50;;;;;;5076917;28;19959;-69
2022/08/14 04:15:51;;;;;;;;;;;21.60;49.70;;;;;;5084424;28;19948;-70
2022/08/14 04:18:17;;;;;;;;;;;21.60;49.70;;;;;;5082953;28;19931;-70
2022/08/14 04:20:44;;;;;;;;;;;21.50;49.80;;;;;;5087731;28;19931;-69
2022/08/14 04:23:11;;;;;;;;;;;21.50;49.70;;;;;;5089964;28;19963;-68
2022/08/14 04:25:39;;;;;;;;;;;21.50;49.70;;;;;;5073641;28;19929;-70
2022/08/14 04:28:06;;;;;;;;;;;21.50;49.80;;;;;;5081677;28;19929;-69
2022/08/14 04:30:37;;;;;;;;;;;21.50;50.00;;;;;;5089594;28;19928;-68
2022/08/14 04:33:05;;;;;;;;;;;21.40;49.90;;;;;;5081581;28;19928;-69
2022/08/14 04:35:32;;;;;;;;;;;21.40;49.90;;;;;;5082161;28;20767;-70
2022/08/14 04:43:39;;;;;;;;;;;21.40;50.20;;;;;;5075630;28;19928;-69
2022/08/14 04:46:07;;;;;;;;;;;21.30;50.20;;;;;;5087737;28;20016;-69
2022/08/14 04:48:34;;;;;;;;;;;21.30;50.30;;;;;;5078421;28;19932;-69
2022/08/14 04:51:01;;;;;;;;;;;21.30;50.40;;;;;;5089997;28;19958;-69
2022/08/14 04:53:29;;;;;;;;;;;21.30;50.40;;;;;;5089326;28;19931;-69
2022/08/14 04:55:56;;;;;;;;;;;21.20;50.40;;;;;;5087373;28;19924;-69
2022/08/14 04:58:25;;;;;;;;;;;21.20;50.40;;;;;;5080520;28;19928;-70
2022/08/14 05:00:52;;;;;;;;;;;21.20;50.50;;;;;;5083551;28;19932;-69
2022/08/14 05:03:20;;;;;;;;;;;21.20;50.50;;;;;;5083392;28;19924;-68
2022/08/14 05:05:48;;;;;;;;;;;21.20;50.50;;;;;;5078829;28;20663;-67
2022/08/14 05:08:15;;;;;;;;;;;21.10;50.70;;;;;;5082581;28;20532;-69
2022/08/14 05:10:43;;;;;;;;;;;21.10;50.60;;;;;;5086009;28;19955;-69
2022/08/14 05:13:10;;;;;;;;;;;21.10;50.60;;;;;;5075759;28;19924;-69
2022/08/14 05:15:38;;;;;;;;;;;21.10;50.70;;;;;;5083603;28;19928;-69
2022/08/14 05:18:11;;;;;;;;;;;21.10;50.90;;;;;;5088657;28;19971;-69
2022/08/14 05:20:38;;;;;;;;;;;21.00;50.80;;;;;;5080106;28;19964;-69
2022/08/14 05:23:07;;;;;;;;;;;21.10;51.00;;;;;;5088350;28;20482;-71
2022/08/14 05:25:34;;;;;;;;;;;21.00;50.90;;;;;;5088493;28;19971;-67
2022/08/14 05:28:11;;;;;;;;;;;21.00;51.00;;;;;;5083211;28;19928;-69
2022/08/14 05:30:37;;;;;;;;;;;21.00;51.20;;;;;;5079037;28;19927;-71
2022/08/14 05:33:04;;;;;;;;;;;21.00;51.30;;;;;;5083371;28;20010;-69
2022/08/14 05:35:31;;;;;;;;;;;21.00;51.50;;;;;;5081801;28;19928;-69
2022/08/14 05:37:58;;;;;;;;;;;20.90;51.30;;;;;;5083805;28;20006;-70
2022/08/14 05:40:26;;;;;;;;;;;20.90;51.40;;;;;;5084617;28;20352;-70
2022/08/14 05:42:53;;;;;;;;;;;20.90;51.40;;;;;;5087557;28;19943;-69
2022/08/14 05:45:19;;;;;;;;;;;20.90;51.60;;;;;;5084319;28;19974;-69
2022/08/14 05:47:46;;;;;;;;;;;20.90;51.70;;;;;;5078566;28;20374;-68
2022/08/14 05:50:13;;;;;;;;;;;20.90;51.70;;;;;;5088214;28;20533;-70
2022/08/14 05:52:40;;;;;;;;;;;20.90;52.00;;;;;;5085167;28;20383;-69
2022/08/14 05:55:08;;;;;;;;;;;20.80;51.80;;;;;;5087840;28;19928;-70
2022/08/14 05:57:45;;;;;;;;;;;20.90;52.10;;;;;;5087073;28;20375;-69
2022/08/14 06:00:12;;;;;;;;;;;20.80;52.00;;;;;;5082491;28;19924;-67
2022/08/14 06:02:38;;;;;;;;;;;20.80;52.00;;;;;;5087501;28;19925;-70
2022/08/14 06:05:05;;;;;;;;;;;20.80;52.10;;;;;;5088842;28;19957;-70
2022/08/14 06:07:35;;;;;;;;;;;20.80;52.20;;;;;;5082782;28;20372;-71
2022/08/14 06:10:01;;;;;;;;;;;20.80;52.20;;;;;;5088043;28;19924;-71
2022/08/14 06:12:28;;;;;;;;;;;20.80;52.20;;;;;;5081601;28;19924;-71
2022/08/14 06:14:56;;;;;;;;;;;20.80;52.30;;;;;;5086737;28;19924;-69
2022/08/14 06:17:22;;;;;;;;;;;20.80;52.40;;;;;;5077303;28;19928;-71
2022/08/14 06:19:49;;;;;;;;;;;20.80;52.50;;;;;;5084864;28;19924;-69
2022/08/14 06:22:15;;;;;;;;;;;20.80;52.60;;;;;;5082422;28;19920;-72
2022/08/14 06:24:42;;;;;;;;;;;20.70;52.60;;;;;;5088745;28;19920;-70
2022/08/14 06:27:08;;;;;;;;;;;20.70;52.70;;;;;;5086070;28;19927;-68
2022/08/14 06:29:36;;;;;;;;;;;20.70;52.60;;;;;;5078811;28;19928;-70
2022/08/14 06:32:04;;;;;;;;;;;20.70;52.80;;;;;;5086528;28;19927;-70
2022/08/14 06:34:31;;;;;;;;;;;20.70;52.90;;;;;;5089266;28;20070;-73
2022/08/14 06:36:58;;;;;;;;;;;20.70;52.80;;;;;;5083177;28;20288;-71
2022/08/14 06:39:25;;;;;;;;;;;20.70;53.00;;;;;;5083504;28;20491;-69
2022/08/14 06:41:51;;;;;;;;;;;20.80;53.10;;;;;;5084527;28;19931;-71
2022/08/14 06:44:18;;;;;;;;;;;20.80;53.40;;;;;;5085464;28;19928;-70
2022/08/14 06:46:45;;;;;;;;;;;20.70;53.40;;;;;;5084102;28;19930;-69
2022/08/14 06:49:12;;;;;;;;;;;20.80;53.30;;;;;;5082049;28;19924;-69
2022/08/14 06:51:40;;;;;;;;;;;20.80;53.50;;;;;;5084059;28;19936;-69
2022/08/14 06:54:06;;;;;;;;;;;20.80;53.30;;;;;;5086629;28;20059;-70
2022/08/14 06:56:33;;;;;;;;;;;20.80;53.30;;;;;;5087895;28;19928;-69
2022/08/14 06:58:59;;;;;;;;;;;20.80;53.40;;;;;;5084689;28;19947;-69
2022/08/14 07:06:55;;;;;;;;;;;20.80;53.30;;;;;;5082347;28;19931;-69
2022/08/14 07:09:23;;;;;;;;;;;20.80;53.20;;;;;;5081367;28;19928;-69
2022/08/14 07:11:49;;;;;;;;;;;20.90;53.30;;;;;;5080797;28;19924;-69
2022/08/14 07:14:16;;;;;;;;;;;20.90;53.30;;;;;;5079218;28;20487;-70
2022/08/14 07:16:42;;;;;;;;;;;20.90;53.30;;;;;;5087441;28;19977;-69
2022/08/14 07:19:09;;;;;;;;;;;20.90;53.80;;;;;;5075722;28;19932;-69
2022/08/14 07:21:36;;;;;;;;;;;20.90;53.10;;;;;;5077726;28;19935;-69
2022/08/14 07:24:04;;;;;;;;;;;21.00;53.10;;;;;;5081806;28;20006;-69
2022/08/14 07:26:31;;;;;;;;;;;21.00;53.10;;;;;;5079571;28;20469;-69
2022/08/14 07:28:57;;;;;;;;;;;21.00;53.10;;;;;;5081751;28;19924;-70
2022/08/14 07:31:24;;;;;;;;;;;21.10;53.10;;;;;;5086495;28;20275;-69
2022/08/14 07:33:50;;;;;;;;;;;21.10;53.10;;;;;;5072734;28;19929;-69
2022/08/14 07:36:18;;;;;;;;;;;21.10;53.00;;;;;;5084437;28;20300;-70
2022/08/14 07:38:45;;;;;;;;;;;21.20;53.10;;;;;;5075911;28;19928;-70
2022/08/14 07:41:12;;;;;;;;;;;21.20;53.00;;;;;;5083667;28;19920;-70
2022/08/14 07:43:39;;;;;;;;;;;21.20;53.00;;;;;;5090671;28;19931;-70
2022/08/14 07:46:07;;;;;;;;;;;21.20;53.10;;;;;;5084448;28;19924;-69
2022/08/14 07:48:37;;;;;;;;;;;21.20;53.00;;;;;;5082719;28;20380;-70
2022/08/14 07:51:04;;;;;;;;;;;21.30;53.10;;;;;;5090351;28;19939;-70
2022/08/14 07:53:30;;;;;;;;;;;21.30;53.20;;;;;;5087489;28;19961;-71
2022/08/14 07:55:57;;;;;;;;;;;21.30;53.20;;;;;;5081066;28;20346;-69
2022/08/14 07:58:25;;;;;;;;;;;21.40;53.40;;;;;;5087827;28;20461;-69
2022/08/14 08:00:54;;;;;;;;;;;21.40;53.40;;;;;;5083339;28;19928;-69
2022/08/14 08:03:21;;;;;;;;;;;21.40;53.60;;;;;;5085594;28;20653;-70
2022/08/14 08:05:48;;;;;;;;;;;21.50;53.40;;;;;;5090426;28;19968;-69
2022/08/14 08:08:16;;;;;;;;;;;21.50;53.50;;;;;;5090240;28;19935;-69
2022/08/14 08:10:43;;;;;;;;;;;21.50;53.50;;;;;;5079834;28;19921;-69
2022/08/14 08:13:11;;;;;;;;;;;21.60;53.40;;;;;;5082998;28;20277;-69
2022/08/14 08:15:40;;;;;;;;;;;21.60;53.20;;;;;;5086234;28;19963;-70
2022/08/14 08:18:08;;;;;;;;;;;21.70;53.10;;;;;;5081546;28;19928;-69
2022/08/14 08:20:36;;;;;;;;;;;21.70;53.40;;;;;;5089129;28;19935;-70
2022/08/14 08:23:04;;;;;;;;;;;21.70;53.30;;;;;;5080104;28;19928;-69
2022/08/14 08:25:31;;;;;;;;;;;21.70;53.10;;;;;;5080885;28;19936;-70
2022/08/14 08:27:59;;;;;;;;;;;21.80;53.10;;;;;;5084963;28;19924;-69
2022/08/14 08:30:26;;;;;;;;;;;21.90;53.20;;;;;;5078198;28;19981;-70
2022/08/14 08:32:54;;;;;;;;;;;21.90;53.00;;;;;;5086388;28;19936;-70
2022/08/14 08:35:22;;;;;;;;;;;21.90;52.90;;;;;;5083273;28;19928;-69
2022/08/14 08:37:49;;;;;;;;;;;21.90;52.80;;;;;;5087719;28;19928;-70
2022/08/14 08:40:22;;;;;;;;;;;22.00;52.80;;;;;;5076510;28;19927;-73
2022/08/14 08:42:49;;;;;;;;;;;22.00;52.80;;;;;;5088836;28;20496;-70
2022/08/14 08:45:16;;;;;;;;;;;22.10;52.70;;;;;;5085929;28;19932;-70
2022/08/14 08:47:43;;;;;;;;;;;22.20;52.70;;;;;;5081295;28;19924;-70
2022/08/14 08:50:21;;;;;;;;;;;22.20;52.50;;;;;;5082588;28;19931;-71
2022/08/14 08:52:51;;;;;;;;;;;22.20;52.40;;;;;;5079864;28;19939;-70
2022/08/14 08:55:24;;;;;;;;;;;22.30;52.30;;;;;;5087873;28;19932;-71
2022/08/14 08:57:53;;;;;;;;;;;22.30;52.10;;;;;;5076596;28;19951;-69
2022/08/14 09:00:20;;;;;;;;;;;22.40;52.10;;;;;;5089887;28;19924;-69
2022/08/14 09:02:53;;;;;;;;;;;22.50;51.80;;;;;;5085084;28;19932;-70
2022/08/14 09:05:22;;;;;;;;;;;22.50;51.70;;;;;;5085328;28;20384;-69
2022/08/14 09:07:48;;;;;;;;;;;22.60;51.50;;;;;;5089309;28;19928;-70
2022/08/14 09:10:15;;;;;;;;;;;22.70;51.40;;;;;;5081730;28;19928;-71
2022/08/14 09:12:41;;;;;;;;;;;22.70;51.20;;;;;;5083280;28;19927;-69
2022/08/14 09:15:09;;;;;;;;;;;22.80;51.10;;;;;;5087279;28;19928;-69
2022/08/14 09:17:36;;;;;;;;;;;22.80;50.80;;;;;;5078300;28;19976;-70
2022/08/14 09:20:03;;;;;;;;;;;22.90;50.60;;;;;;5086928;28;19929;-70
2022/08/14 09:22:31;;;;;;;;;;;23.00;50.50;;;;;;5089744;28;19935;-69
2022/08/14 09:24:58;;;;;;;;;;;23.10;50.30;;;;;;5088623;28;19931;-70
2022/08/14 09:27:24;;;;;;;;;;;23.10;49.90;;;;;;5086529;28;20309;-70
2022/08/14 09:29:51;;;;;;;;;;;23.20;49.70;;;;;;5074075;28;20468;-70
2022/08/14 09:32:22;;;;;;;;;;;23.30;49.60;;;;;;5088192;28;20042;-69
2022/08/14 09:34:52;;;;;;;;;;;23.40;49.30;;;;;;5087825;28;19920;-70
2022/08/14 09:37:29;;;;;;;;;;;23.40;48.90;;;;;;5081313;28;19938;-70
2022/08/14 09:40:03;;;;;;;;;;;23.50;49.90;;;;;;5077217;28;20352;-70
2022/08/14 09:42:35;;;;;;;;;;;23.60;48.90;;;;;;5088792;28;19935;-69
2022/08/14 09:45:09;;;;;;;;;;;23.60;48.30;;;;;;5086784;28;19924;-71
2022/08/14 09:47:43;;;;;;;;;;;23.70;48.00;;;;;;5082522;28;19932;-70
2022/08/14 09:50:20;;;;;;;;;;;23.80;47.70;;;;;;5086648;28;20384;-70
2022/08/14 09:52:50;;;;;;;;;;;23.80;47.60;;;;;;5086954;28;19978;-71
2022/08/14 09:55:18;;;;;;;;;;;24.00;47.50;;;;;;5080456;28;19924;-69
2022/08/14 09:57:45;;;;;;;;;;;24.00;47.20;;;;;;5087328;28;19942;-69
2022/08/14 10:00:13;;;;;;;;;;;24.10;46.90;;;;;;5088525;28;19931;-71
2022/08/14 10:02:39;;;;;;;;;;;24.20;46.80;;;;;;5077573;28;19959;-69
2022/08/14 10:05:08;;;;;;;;;;;24.20;46.60;;;;;;5088775;28;20690;-70
2022/08/14 10:07:36;;;;;;;;;;;24.30;46.30;;;;;;5085375;28;19935;-70
2022/08/14 10:10:04;;;;;;;;;;;24.30;46.10;;;;;;5080439;28;20359;-70
2022/08/14 10:12:47;;;;;;;;;;;24.40;46.20;;;;;;5077438;28;20443;-70
2022/08/14 10:15:18;;;;;;;;;;;24.50;45.80;;;;;;5088319;28;20387;-70
2022/08/14 10:17:45;;;;;;;;;;;24.60;45.80;;;;;;5088872;28;19931;-70
2022/08/14 10:20:12;;;;;;;;;;;24.70;45.30;;;;;;5088061;28;19924;-69
2022/08/14 10:22:39;;;;;;;;;;;24.70;45.10;;;;;;5085716;28;19924;-69
2022/08/14 10:25:11;;;;;;;;;;;24.80;44.80;;;;;;5084562;28;19955;-71
2022/08/14 10:27:37;;;;;;;;;;;24.90;44.70;;;;;;5082328;28;20300;-70
2022/08/14 10:30:12;;;;;;;;;;;25.00;44.40;;;;;;5078067;28;20391;-69
2022/08/14 10:32:43;;;;;;;;;;;25.10;44.20;;;;;;5082191;28;19924;-69
2022/08/14 10:35:10;;;;;;;;;;;25.20;44.10;;;;;;5086411;28;19963;-69
2022/08/14 10:37:38;;;;;;;;;;;25.30;43.80;;;;;;5085498;28;20682;-69
2022/08/14 10:40:06;;;;;;;;;;;25.30;43.40;;;;;;5078223;28;19974;-70
2022/08/14 10:42:36;;;;;;;;;;;25.40;43.30;;;;;;5087368;28;19928;-69
2022/08/14 10:45:03;;;;;;;;;;;25.50;43.00;;;;;;5086127;28;19954;-71
2022/08/14 10:47:35;;;;;;;;;;;25.60;43.20;;;;;;5079580;28;19932;-71
2022/08/14 10:50:02;;;;;;;;;;;25.60;42.80;;;;;;5085344;28;19928;-73
2022/08/14 10:52:33;;;;;;;;;;;25.70;43.40;;;;;;5077899;28;21934;-69
2022/08/14 10:55:07;;;;;;;;;;;25.80;43.00;;;;;;5086521;28;20043;-70
2022/08/14 10:57:35;;;;;;;;;;;25.90;42.60;;;;;;5086125;28;20038;-72
2022/08/14 11:00:12;;;;;;;;;;;25.90;41.90;;;;;;5087871;28;19955;-71
2022/08/14 11:02:41;;;;;;;;;;;26.10;41.70;;;;;;5085601;28;19924;-70
2022/08/14 11:05:11;;;;;;;;;;;26.10;41.40;;;;;;5087026;28;19935;-69
2022/08/14 11:07:39;;;;;;;;;;;26.20;41.40;;;;;;5077813;28;19931;-70
2022/08/14 11:10:08;;;;;;;;;;;26.30;41.80;;;;;;5085730;28;19932;-71
2022/08/14 11:12:45;;;;;;;;;;;26.40;41.20;;;;;;5070339;28;20027;-70
2022/08/14 11:15:12;;;;;;;;;;;26.40;41.00;;;;;;5083681;28;19924;-70
2022/08/14 11:17:40;;;;;;;;;;;26.50;41.40;;;;;;5075604;28;19925;-70
2022/08/14 11:20:08;;;;;;;;;;;26.60;41.10;;;;;;5077352;28;19928;-70
2022/08/14 11:22:37;;;;;;;;;;;26.60;40.50;;;;;;5080598;28;19931;-71
2022/08/14 11:25:06;;;;;;;;;;;26.80;40.40;;;;;;5083791;28;19931;-70
2022/08/14 11:27:33;;;;;;;;;;;26.80;40.90;;;;;;5079035;28;19935;-70
2022/08/14 11:30:00;;;;;;;;;;;26.90;39.70;;;;;;5086566;28;19932;-70
2022/08/14 11:32:28;;;;;;;;;;;27.00;40.20;;;;;;5078498;28;19920;-70
2022/08/14 11:34:55;;;;;;;;;;;27.00;39.70;;;;;;5074125;28;19924;-71
2022/08/14 11:37:23;;;;;;;;;;;27.10;39.70;;;;;;5086922;28;19935;-70
2022/08/14 11:39:49;;;;;;;;;;;27.10;39.50;;;;;;5076472;28;19924;-69
2022/08/14 11:42:20;;;;;;;;;;;27.20;39.30;;;;;;5087074;28;20384;-69
2022/08/14 11:44:47;;;;;;;;;;;27.30;39.30;;;;;;5080557;28;19928;-70
2022/08/14 11:47:18;;;;;;;;;;;27.40;39.70;;;;;;5082506;28;20403;-69
2022/08/14 11:49:45;;;;;;;;;;;27.40;39.40;;;;;;5078812;28;19939;-70
2022/08/14 11:52:13;;;;;;;;;;;27.50;39.00;;;;;;5079867;28;19924;-68
2022/08/14 11:54:39;;;;;;;;;;;27.60;39.40;;;;;;5085102;28;20299;-70
2022/08/14 11:57:13;;;;;;;;;;;27.60;39.60;;;;;;5084296;28;19932;-70
2022/08/14 11:59:40;;;;;;;;;;;27.70;39.10;;;;;;5078938;28;19928;-71
2022/08/14 12:02:11;;;;;;;;;;;27.80;38.50;;;;;;5085497;28;19928;-70
2022/08/14 12:04:47;;;;;;;;;;;27.90;38.20;;;;;;5084645;28;19975;-71
2022/08/14 12:07:16;;;;;;;;;;;27.90;38.00;;;;;;5081415;28;19931;-70
2022/08/14 12:09:44;;;;;;;;;;;28.00;38.80;;;;;;5075629;28;19967;-70
2022/08/14 12:12:14;;;;;;;;;;;28.10;38.50;;;;;;5079107;28;19947;-71
2022/08/14 12:14:47;;;;;;;;;;;28.10;38.50;;;;;;5085665;28;19925;-69
2022/08/14 12:17:14;;;;;;;;;;;28.20;38.50;;;;;;5079594;28;20543;-70
2022/08/14 12:19:48;;;;;;;;;;;28.20;37.70;;;;;;5082375;28;19930;-70
2022/08/14 12:22:16;;;;;;;;;;;28.30;37.30;;;;;;5081159;28;20335;-70
2022/08/14 12:24:44;;;;;;;;;;;28.40;37.30;;;;;;5078579;28;20391;-71
2022/08/14 12:27:11;;;;;;;;;;;28.40;37.50;;;;;;5080437;28;20009;-70
2022/08/14 12:29:39;;;;;;;;;;;28.50;37.20;;;;;;5084544;28;19928;-70
2022/08/14 12:32:06;;;;;;;;;;;28.50;36.80;;;;;;5080880;28;19928;-70
2022/08/14 12:34:33;;;;;;;;;;;28.60;37.20;;;;;;5083596;28;19955;-69
2022/08/14 12:37:09;;;;;;;;;;;28.70;36.90;;;;;;5084786;28;20408;-69
2022/08/14 12:39:37;;;;;;;;;;;28.70;37.10;;;;;;5081184;28;19928;-71
2022/08/14 12:42:06;;;;;;;;;;;28.80;37.20;;;;;;5090008;28;19927;-69
2022/08/14 12:44:33;;;;;;;;;;;28.90;37.40;;;;;;5086298;28;20360;-70
2022/08/14 12:47:04;;;;;;;;;;;28.90;36.40;;;;;;5080834;28;19924;-69
2022/08/14 12:49:32;;;;;;;;;;;29.00;35.90;;;;;;5081166;28;20312;-70
2022/08/14 12:52:01;;;;;;;;;;;29.10;36.10;;;;;;5080030;28;20298;-69
2022/08/14 12:54:28;;;;;;;;;;;29.10;36.50;;;;;;5087511;28;19928;-70
2022/08/14 12:57:05;;;;;;;;;;;29.20;36.10;;;;;;5080420;28;20339;-70
2022/08/14 12:59:32;;;;;;;;;;;29.20;36.60;;;;;;5083133;28;19932;-71
2022/08/14 13:02:00;;;;;;;;;;;29.20;36.10;;;;;;5085406;28;20395;-70
2022/08/14 13:04:30;;;;;;;;;;;29.30;35.50;;;;;;5079155;28;19932;-71
2022/08/14 13:07:00;;;;;;;;;;;29.40;35.20;;;;;;5085067;28;19924;-70
2022/08/14 13:09:28;;;;;;;;;;;29.40;35.20;;;;;;5082959;28;19927;-69
2022/08/14 13:11:55;;;;;;;;;;;29.50;35.50;;;;;;5082480;28;19929;-69
2022/08/14 13:14:24;;;;;;;;;;;29.60;36.00;;;;;;5080538;28;19941;-70
2022/08/14 13:16:52;;;;;;;;;;;29.60;36.20;;;;;;5088634;28;20375;-69
2022/08/14 13:19:19;;;;;;;;;;;29.70;36.50;;;;;;5081756;28;19924;-70
2022/08/14 13:21:47;;;;;;;;;;;29.70;35.10;;;;;;5080064;28;19924;-71
2022/08/14 13:24:14;;;;;;;;;;;29.70;34.80;;;;;;5073453;28;20300;-69
2022/08/14 13:26:43;;;;;;;;;;;29.80;34.30;;;;;;5074488;28;19928;-70
2022/08/14 13:29:11;;;;;;;;;;;29.90;34.30;;;;;;5077450;28;19924;-70
2022/08/14 13:31:40;;;;;;;;;;;29.90;34.00;;;;;;5084736;28;19971;-69
2022/08/14 13:34:07;;;;;;;;;;;29.90;33.60;;;;;;5081819;28;19940;-70
2022/08/14 13:36:34;;;;;;;;;;;30.00;33.30;;;;;;5081586;28;19932;-70
2022/08/14 13:39:00;;;;;;;;;;;30.10;34.10;;;;;;5076705;28;19932;-70
2022/08/14 13:41:27;;;;;;;;;;;30.10;33.60;;;;;;5085580;28;19951;-69
2022/08/14 13:43:55;;;;;;;;;;;30.10;34.30;;;;;;5086875;28;20384;-69
2022/08/14 13:46:22;;;;;;;;;;;30.20;33.50;;;;;;5079382;28;19982;-68
2022/08/14 13:48:50;;;;;;;;;;;30.20;33.50;;;;;;5082498;28;19935;-69
2022/08/14 13:51:17;;;;;;;;;;;30.30;33.60;;;;;;5082386;28;20380;-69
2022/08/14 13:53:44;;;;;;;;;;;30.30;34.50;;;;;;5089324;28;20374;-69
2022/08/14 13:56:13;;;;;;;;;;;30.30;33.80;;;;;;5081613;28;19924;-68
2022/08/14 13:58:42;;;;;;;;;;;30.30;33.60;;;;;;5085680;28;19924;-70
2022/08/14 14:01:09;;;;;;;;;;;30.40;34.90;;;;;;5080938;28;19932;-71
2022/08/14 14:03:36;;;;;;;;;;;30.50;33.50;;;;;;5084398;28;19928;-72
2022/08/14 14:06:05;;;;;;;;;;;30.50;33.20;;;;;;5076727;28;20291;-71
2022/08/14 14:08:33;;;;;;;;;;;30.60;32.60;;;;;;5082924;28;20407;-70
2022/08/14 14:11:00;;;;;;;;;;;30.60;32.40;;;;;;5076317;28;19931;-72
2022/08/14 14:13:26;;;;;;;;;;;30.70;32.30;;;;;;5075522;28;19928;-70
2022/08/14 14:15:53;;;;;;;;;;;30.70;31.80;;;;;;5080642;28;19928;-72
2022/08/14 14:18:24;;;;;;;;;;;30.70;31.70;;;;;;5088067;28;20311;-70
2022/08/14 14:20:51;;;;;;;;;;;30.80;31.90;;;;;;5079360;28;19928;-70
2022/08/14 14:23:19;;;;;;;;;;;30.80;31.50;;;;;;5086078;28;19935;-71
2022/08/14 14:25:46;;;;;;;;;;;30.90;31.50;;;;;;5068881;28;20384;-71
2022/08/14 14:28:14;;;;;;;;;;;30.90;32.00;;;;;;5083462;28;19921;-70
2022/08/14 14:30:44;;;;;;;;;;;31.00;32.30;;;;;;5083494;28;19967;-70
2022/08/14 14:33:12;;;;;;;;;;;31.00;32.00;;;;;;5088025;28;19924;-70
2022/08/14 14:35:43;;;;;;;;;;;31.10;31.50;;;;;;5081208;28;19931;-71